Airfield :
LOGIN :

Register | Disclaimer

   EN    FR    IT 

 










Legend :    VFR   Marginal VFR   IFR   Intensive IFR   Very Intensive IFR
Visi :
Ceiling :
>= 8 km
>= 3000ft
5 to 8 km
1000 to 3000 ft
1500m to 5 km
500 to 1000 ft
800 to 1500m
200 to 500 ft
< 800m
< 200 ft
Symbols :   Thunderstorms  Fog  Heavy snow  Heavy precipitations  Wind > 20 kt
SIGMETs :     Misc.  Thunderstorms  Icing  Turbulence  Mountain Waves  Volcanic Ashes






- Airport Elevation : 1178 ft
- IATA code : EVG


ESND - Sveg

CURRENT METAR :
  • 260550Z AUTO 06003KT 1700 BR OVC001/// 10/10 Q1027

EXPIRED METARs :
  • 260520Z AUTO VRB03KT 1000 R09/1800N R27/1300U BR OVC001/// 10/10 Q1028
  • 260450Z AUTO 06004KT 1000 R09/1700D R27/1400N BR BKN001/// OVC003/// 10/09 Q1028
  • 260420Z AUTO 07005KT 1800 BR OVC001/// 10/09 Q1028
  • 260350Z AUTO 06006KT 2200 BR OVC001/// 10/09 Q1027
  • 260320Z AUTO 07006KT 2300 BR OVC002/// 10/09 Q1027
  • 260250Z AUTO 08007KT 3700 BR OVC002/// 10/09 Q1027
  • 260220Z AUTO 07008KT 9999 OVC003/// 10/09 Q1027
  • 260150Z AUTO 07009KT 9999 OVC003/// 11/09 Q1027
  • 260120Z AUTO 09008KT 9999 OVC005/// 11/09 Q1027

TAF N/A



MET'MAP, your aeronautical weather chart ! - Copyright ORBIFLY December 2007 - Disclaimer

ORBIFLY MET'MAP TEAM :

Programming & Development : Alexandra Zaïnal
Original concept : Baudouin d'Aumeries
Technical & hardware support : Manuel Goepfert
Assistance : Marc-Olivier Méhu




SOURCES & CREDITS :

   NOAA